*** Het weer in Zoersel & omstreken... Achter de schermen zijn we druk in de weer om deze website een grondige make-over te geven! Nog even geduld dus! ***

*** BELANGRIJK BERICHT 03/06/2019: Vanwege een storing bij Weather Underground, werken de realtime grafieken en weerrapporten voor onbepaalde duur niet meer. Er wordt naar een oplossing gezocht! ***


Weerstation Zoersel Live Webcam Weerstation Zoersel Live Webcam


sateliet wolkenradar  


Doneren

CBI


onweer radar meer informatie blitzortung!


regen radar  rain snow radar


Enkele sfeerfotootjes...  

Het weer levert geen direct gevaar op.    Er zijn geen waarschuwingen afgegeven.

metar rapporten vliegvelden

   
EBAW - Antwerp
gewijzigd: 24-08-2019 19:20
helder  
helder  
   wind: ozo 5,6 km/h
wind: ozo 5,6 km/h
temperatuur: 28°C
gevoelstemperatuur: 28°C
dauwpunt: 15°C
vochtigheid: 45%
barometer: 1018 hPa
zicht: meer dan 10 km
bewolking: helder
EBAW 241720Z 12003KT CAVOK 28/15 Q1018 NOSIG
EBLG - Li├Ęge
gewijzigd: 24-08-2019 19:20
helder  
helder  
   wind: ono 7,4 km/h
wind: ono 7,4 km/h
temperatuur: 28°C
dauwpunt: 12°C
vochtigheid: 37%
barometer: 1018 hPa
zicht: meer dan 10 km
bewolking: helder
EBLG 241720Z 07004KT 030V150 CAVOK 28/12 Q1018 NOSIG
EBCV - Mons/Bergen
gewijzigd: 24-08-2019 18:55
helder  
helder  
   wind: varieert 3,7 km/h
wind: varieert 3,7 km/h
temperatuur: 29°C
dauwpunt: 13°C
vochtigheid: 37%
barometer: 1018 hPa
bewolking: helder
zicht: meer dan 10 km
bewolking: helder
EBCV 241655Z AUTO VRB02KT 9999 NCD 29/13 Q1018 BLU
EHBK - Maastricht
gewijzigd: 24-08-2019 19:25
helder  
helder  
   wind: ono 11,1 km/h
wind: ono 11,1 km/h
temperatuur: 27°C
gevoelstemperatuur: 27°C
dauwpunt: 13°C
vochtigheid: 42%
barometer: 1018 hPa
bewolking: helder
zicht: meer dan 10 km
bewolking: helder
EHBK 241725Z AUTO 06006KT 020V100 9999 NCD 27/13 Q1018 NOSIG
ELLX - Luxemburg
gewijzigd: 24-08-2019 19:20
helder  
helder  
   wind: zzo 11,1 km/h
wind: zzo 11,1 km/h
temperatuur: 27°C
dauwpunt: 12°C
vochtigheid: 39%
barometer: 1019 hPa
zicht: meer dan 10 km
bewolking: helder
ELLX 241720Z 15006KT CAVOK 27/12 Q1019 NOSIG
EBOS - Oostende
gewijzigd: 24-08-2019 19:20
helder  
helder  
   wind: nno 11,1 km/h
wind: nno 11,1 km/h
temperatuur: 24°C
dauwpunt: 16°C
vochtigheid: 61%
barometer: 1018 hPa
zicht: meer dan 10 km
bewolking: helder
EBOS 241720Z 03006KT CAVOK 24/16 Q1018 NOSIG

script ontwikkeld door  Saratoga-weather.org aangepast voor de template door  Weerstation Leuven